createdAt,value
2023-05-24T00:00:13.158Z,101786.47
2023-05-24T00:02:43.873Z,101770.28
2023-05-24T00:05:10.956Z,101767.75
2023-05-24T00:07:38.428Z,101732.94
2023-05-24T00:10:06.145Z,101778.63
2023-05-24T00:12:33.202Z,101774.13
2023-05-24T00:14:59.752Z,101776.81
2023-05-24T00:17:26.514Z,101757.09
2023-05-24T00:19:53.325Z,101726.53
2023-05-24T00:22:21.043Z,101759.25
2023-05-24T00:24:48.253Z,101754.88
2023-05-24T00:27:15.529Z,101757.31
2023-05-24T00:29:42.070Z,101760.97
2023-05-24T00:32:08.787Z,101767.84
2023-05-24T00:34:35.720Z,101727.19
2023-05-24T00:37:02.214Z,101760.41
2023-05-24T00:39:28.807Z,101705.72
2023-05-24T00:41:55.261Z,101745.06
2023-05-24T00:44:21.726Z,101739.84
2023-05-24T00:46:48.506Z,101744.09
2023-05-24T00:49:15.007Z,101713.69
2023-05-24T00:51:41.559Z,101748.47
2023-05-24T00:54:08.209Z,101726.16
2023-05-24T00:56:34.913Z,101748.84
2023-05-24T00:59:01.951Z,101742.41
2023-05-24T01:01:31.021Z,101745.78
2023-05-24T01:03:59.466Z,101743.00
2023-05-24T01:06:28.043Z,101745.66
2023-05-24T01:09:07.515Z,101738.50
2023-05-24T01:11:45.982Z,101744.81
2023-05-24T01:14:34.016Z,101737.50
2023-05-24T01:17:15.080Z,101737.38
2023-05-24T01:20:06.904Z,101705.00
2023-05-24T01:22:39.780Z,101739.22
2023-05-24T01:25:34.313Z,101738.78
2023-05-24T01:28:01.629Z,101728.50
2023-05-24T01:30:28.699Z,101739.22
2023-05-24T01:32:55.411Z,101731.19
2023-05-24T01:35:21.960Z,101728.50
2023-05-24T01:37:48.467Z,101706.84
2023-05-24T01:40:15.876Z,101735.41
2023-05-24T01:42:56.597Z,101687.50
2023-05-24T01:45:32.331Z,101710.88
2023-05-24T01:48:27.720Z,101724.28
2023-05-24T01:50:56.971Z,101727.94
2023-05-24T01:53:26.434Z,101727.81
2023-05-24T01:55:56.524Z,101719.06
2023-05-24T01:58:25.485Z,101728.66
2023-05-24T02:00:53.194Z,101717.06
2023-05-24T02:03:20.243Z,101723.31
2023-05-24T02:05:47.102Z,101709.22
2023-05-24T02:08:13.963Z,101711.03
2023-05-24T02:10:40.929Z,101720.50
2023-05-24T02:13:08.598Z,101695.06
2023-05-24T02:15:35.624Z,101714.16
2023-05-24T02:18:02.438Z,101682.91
2023-05-24T02:20:31.986Z,101724.88
2023-05-24T02:22:59.066Z,101677.69
2023-05-24T02:25:26.004Z,101693.69
2023-05-24T02:27:52.543Z,101723.91
2023-05-24T02:30:19.231Z,101716.00
2023-05-24T02:32:46.648Z,101720.25
2023-05-24T02:35:13.319Z,101689.59
2023-05-24T02:37:40.591Z,101726.44
2023-05-24T02:40:07.911Z,101730.81
2023-05-24T02:42:34.664Z,101713.31
2023-05-24T02:45:01.219Z,101725.59
2023-05-24T02:47:27.861Z,101700.88
2023-05-24T02:49:54.953Z,101736.78
2023-05-24T02:52:23.038Z,101720.38
2023-05-24T02:54:49.960Z,101721.94
2023-05-24T02:57:16.631Z,101726.19
2023-05-24T02:59:43.568Z,101729.56
2023-05-24T03:02:10.128Z,101728.56
2023-05-24T03:04:36.561Z,101709.41
2023-05-24T03:07:03.306Z,101730.28
2023-05-24T03:09:30.021Z,101720.13
2023-05-24T03:11:56.503Z,101733.78
2023-05-24T03:14:24.846Z,101725.63
2023-05-24T03:16:51.596Z,101726.47
2023-05-24T03:19:18.223Z,101685.66
2023-05-24T03:21:44.771Z,101714.91
2023-05-24T03:24:13.398Z,101710.13
2023-05-24T03:26:40.843Z,101661.38
2023-05-24T03:29:07.704Z,101718.19
2023-05-24T03:31:34.335Z,101718.19
2023-05-24T03:34:01.411Z,101709.31
2023-05-24T03:36:29.113Z,101719.88
2023-05-24T03:38:58.314Z,101712.84
2023-05-24T03:41:25.217Z,101703.06
2023-05-24T03:43:52.466Z,101714.41
2023-05-24T03:46:19.011Z,101709.69
2023-05-24T03:48:45.580Z,101705.63
2023-05-24T03:51:12.056Z,101712.97
2023-05-24T03:53:38.544Z,101692.03
2023-05-24T03:56:05.510Z,101698.56
2023-05-24T03:58:32.060Z,101717.72
2023-05-24T04:00:58.695Z,101707.56
2023-05-24T04:03:26.063Z,101724.41
2023-05-24T04:05:54.020Z,101724.13
2023-05-24T04:08:20.716Z,101738.94
2023-05-24T04:10:47.200Z,101740.63
2023-05-24T04:13:13.879Z,101737.09
2023-05-24T04:15:40.732Z,101740.63
2023-05-24T04:18:07.343Z,101736.53
2023-05-24T04:20:34.001Z,101742.28
2023-05-24T04:23:00.597Z,101744.25
2023-05-24T04:25:27.626Z,101738.31
2023-05-24T04:27:54.308Z,101691.38
2023-05-24T04:30:21.474Z,101746.16
2023-05-24T04:32:48.653Z,101737.81
2023-05-24T04:35:16.724Z,101739.75
2023-05-24T04:37:44.557Z,101733.97
2023-05-24T04:40:11.725Z,101730.72
2023-05-24T04:42:38.421Z,101740.69
2023-05-24T04:45:05.570Z,101726.81
2023-05-24T04:47:32.508Z,101737.84
2023-05-24T04:49:59.064Z,101730.84
2023-05-24T04:52:25.763Z,101708.91
2023-05-24T04:54:52.876Z,101736.34
2023-05-24T04:57:19.396Z,101749.44
2023-05-24T04:59:45.940Z,101749.72
2023-05-24T05:02:12.773Z,101719.44
2023-05-24T05:04:39.408Z,101726.78
2023-05-24T05:07:07.334Z,101749.50
2023-05-24T05:09:33.874Z,101733.66
2023-05-24T05:12:00.389Z,101763.50
2023-05-24T05:14:27.001Z,101737.91
2023-05-24T05:16:53.507Z,101765.31
2023-05-24T05:19:20.196Z,101754.88
2023-05-24T05:21:46.645Z,101734.16
2023-05-24T05:24:20.254Z,101770.41
2023-05-24T05:26:46.736Z,101772.13
2023-05-24T05:29:13.279Z,101766.47
2023-05-24T05:31:39.779Z,101726.22
2023-05-24T05:34:09.807Z,101762.44
2023-05-24T05:36:41.138Z,101773.63
2023-05-24T05:39:11.473Z,101769.00
2023-05-24T05:41:46.380Z,101763.88
2023-05-24T05:44:13.842Z,101775.50
2023-05-24T05:46:41.490Z,101771.72
2023-05-24T05:49:08.205Z,101775.97
2023-05-24T05:51:34.712Z,101780.22
2023-05-24T05:54:01.355Z,101767.94
2023-05-24T05:56:27.883Z,101748.69
2023-05-24T05:58:56.339Z,101754.94
2023-05-24T06:01:24.160Z,101783.91
2023-05-24T06:03:51.561Z,101777.72
2023-05-24T06:06:18.336Z,101795.81
2023-05-24T06:08:44.840Z,101787.66
2023-05-24T06:11:11.771Z,101793.13
2023-05-24T06:13:38.305Z,101797.22
2023-05-24T06:16:04.947Z,101803.31
2023-05-24T06:18:32.617Z,101769.22
2023-05-24T06:20:59.148Z,101803.88
2023-05-24T06:23:25.679Z,101809.72
2023-05-24T06:25:52.281Z,101784.81
2023-05-24T06:28:18.905Z,101804.66
2023-05-24T06:30:45.752Z,101817.28
2023-05-24T06:33:12.452Z,101809.53
2023-05-24T06:35:38.995Z,101812.09
2023-05-24T06:38:05.763Z,101811.88
2023-05-24T06:40:32.369Z,101812.22
2023-05-24T06:42:58.916Z,101824.13
2023-05-24T06:45:25.488Z,101824.59
2023-05-24T06:47:52.228Z,101831.66
2023-05-24T06:50:18.945Z,101835.66
2023-05-24T06:52:45.608Z,101832.56
2023-05-24T06:55:12.061Z,101840.91
2023-05-24T06:57:38.549Z,101843.31
2023-05-24T07:00:09.930Z,101845.56
2023-05-24T07:02:36.473Z,101840.31
2023-05-24T07:05:03.039Z,101861.38
2023-05-24T07:07:29.611Z,101864.47
2023-05-24T07:09:56.494Z,101857.41
2023-05-24T07:12:23.595Z,101855.59
2023-05-24T07:14:50.069Z,101859.81
2023-05-24T07:17:16.740Z,101861.25
2023-05-24T07:19:43.355Z,101857.00
2023-05-24T07:22:09.874Z,101859.81
2023-05-24T07:24:36.668Z,101862.50
2023-05-24T07:27:03.342Z,101868.72
2023-05-24T07:29:29.803Z,101865.19
2023-05-24T07:31:56.847Z,101870.16
2023-05-24T07:34:27.645Z,101866.47
2023-05-24T07:36:54.180Z,101866.91
2023-05-24T07:39:20.752Z,101869.16
2023-05-24T07:41:48.287Z,101825.34
2023-05-24T07:44:15.102Z,101864.06
2023-05-24T07:46:41.630Z,101882.31
2023-05-24T07:49:08.091Z,101869.47
2023-05-24T07:51:34.559Z,101871.03
2023-05-24T07:54:01.071Z,101875.72
2023-05-24T07:56:27.575Z,101878.25
2023-05-24T07:58:59.293Z,101878.25
2023-05-24T08:01:25.954Z,101880.66
2023-05-24T08:03:52.936Z,101837.69
2023-05-24T08:06:19.533Z,101883.28
2023-05-24T08:08:46.362Z,101883.84
2023-05-24T08:11:14.145Z,101872.38
2023-05-24T08:13:40.604Z,101882.94
2023-05-24T08:16:07.114Z,101883.81
2023-05-24T08:18:33.729Z,101877.72
2023-05-24T08:21:00.184Z,101881.22
2023-05-24T08:23:27.064Z,101884.78
2023-05-24T08:25:54.281Z,101892.41
2023-05-24T08:28:21.146Z,101890.44
2023-05-24T08:30:48.095Z,101890.59
2023-05-24T08:33:15.007Z,101902.38
2023-05-24T08:35:42.299Z,101901.69
2023-05-24T08:38:09.498Z,101897.25
2023-05-24T08:40:36.172Z,101909.44
2023-05-24T08:43:02.817Z,101895.00
2023-05-24T08:45:31.917Z,101899.94
2023-05-24T08:47:59.561Z,101894.13
2023-05-24T08:50:28.604Z,101904.50
2023-05-24T08:52:57.551Z,101904.56
2023-05-24T08:55:25.099Z,101887.13
2023-05-24T08:57:52.635Z,101917.28
2023-05-24T09:00:19.704Z,101911.63
2023-05-24T09:02:46.517Z,101920.75
2023-05-24T09:05:16.781Z,101899.59
2023-05-24T09:07:45.575Z,101916.91
2023-05-24T09:10:12.701Z,101883.28
2023-05-24T09:12:42.279Z,101916.50
2023-05-24T09:15:09.633Z,101914.47
2023-05-24T09:17:37.359Z,101922.72
2023-05-24T09:20:07.484Z,101915.13
2023-05-24T09:22:36.857Z,101920.72
2023-05-24T09:25:06.427Z,101938.47
2023-05-24T09:27:35.033Z,101931.47
2023-05-24T09:30:04.981Z,101932.16
2023-05-24T09:32:31.802Z,101917.13
2023-05-24T09:34:59.683Z,101934.44
2023-05-24T09:37:32.182Z,101936.13
2023-05-24T09:39:59.579Z,101935.16
2023-05-24T09:42:28.791Z,101931.97
2023-05-24T09:45:10.561Z,101932.34
2023-05-24T09:47:41.611Z,101925.47
2023-05-24T09:50:17.732Z,101937.69
2023-05-24T09:52:45.373Z,101932.66
2023-05-24T09:55:17.010Z,101928.63
2023-05-24T09:57:52.407Z,101942.19
2023-05-24T10:00:27.904Z,101932.06
2023-05-24T10:03:07.101Z,101917.84
2023-05-24T10:05:34.931Z,101941.03
2023-05-24T10:08:02.153Z,101944.88
2023-05-24T10:10:30.299Z,101944.19
2023-05-24T10:12:57.929Z,101946.38
2023-05-24T10:15:25.493Z,101950.22
2023-05-24T10:17:52.771Z,101947.50
2023-05-24T10:20:19.486Z,101949.16
2023-05-24T10:22:47.879Z,101934.09
2023-05-24T10:25:18.555Z,101965.03
2023-05-24T10:27:46.719Z,101966.56
2023-05-24T10:30:16.109Z,101965.25
2023-05-24T10:32:45.419Z,101947.19
2023-05-24T10:35:14.834Z,101949.06
2023-05-24T10:37:42.713Z,101950.63
2023-05-24T10:40:20.906Z,101919.53
2023-05-24T10:42:48.175Z,101955.91
2023-05-24T10:45:53.451Z,101963.78
2023-05-24T10:48:29.281Z,101962.41
2023-05-24T10:50:56.300Z,101950.56
2023-05-24T10:53:25.945Z,101958.13
2023-05-24T10:55:59.663Z,101961.00
2023-05-24T10:58:48.691Z,101953.84
2023-05-24T11:01:27.091Z,101954.19
2023-05-24T11:03:54.256Z,101951.63
2023-05-24T11:06:48.037Z,101952.94
2023-05-24T11:09:15.959Z,101945.09
2023-05-24T11:11:46.317Z,101939.97
2023-05-24T11:14:13.891Z,101948.78
2023-05-24T11:16:41.189Z,101953.03
2023-05-24T11:19:23.094Z,101953.03
2023-05-24T11:21:51.681Z,101956.00
2023-05-24T11:24:19.273Z,101941.25
2023-05-24T11:26:46.759Z,101950.22
2023-05-24T11:29:18.058Z,101953.50
2023-05-24T11:31:58.147Z,101955.94
2023-05-24T11:34:27.085Z,101947.69
2023-05-24T11:36:55.353Z,101958.88
2023-05-24T11:39:23.509Z,101962.59
2023-05-24T11:41:50.304Z,101961.75
2023-05-24T11:44:19.486Z,101970.53
2023-05-24T11:46:46.263Z,101965.63
2023-05-24T11:49:16.776Z,101973.53
2023-05-24T11:51:43.721Z,101966.59
2023-05-24T11:54:10.281Z,101961.13
2023-05-24T11:56:36.902Z,101933.59
2023-05-24T11:59:15.862Z,101968.84
2023-05-24T12:01:42.571Z,101975.16
2023-05-24T12:04:10.250Z,101954.03
2023-05-24T12:06:39.493Z,101979.91
2023-05-24T12:09:08.624Z,101972.69
2023-05-24T12:11:39.736Z,101968.97
2023-05-24T12:14:07.328Z,101960.75
2023-05-24T12:16:35.862Z,101972.56
2023-05-24T12:19:09.360Z,101975.31
2023-05-24T12:21:43.946Z,101988.50
2023-05-24T12:24:19.387Z,101987.50
2023-05-24T12:26:48.831Z,101974.28
2023-05-24T12:29:16.462Z,101982.91
2023-05-24T12:31:44.581Z,101985.63
2023-05-24T12:34:18.889Z,101989.19
2023-05-24T12:36:46.337Z,101982.56
2023-05-24T12:39:19.571Z,101995.75
2023-05-24T12:41:50.909Z,101995.41
2023-05-24T12:44:17.404Z,102001.19
2023-05-24T12:46:44.179Z,101991.88
2023-05-24T12:49:10.757Z,101998.94
2023-05-24T12:51:37.404Z,101992.66
2023-05-24T12:54:05.271Z,101994.59
2023-05-24T12:56:31.741Z,101971.38
2023-05-24T12:58:58.450Z,101967.91
2023-05-24T13:01:25.614Z,101983.84
2023-05-24T13:03:52.204Z,101959.31
2023-05-24T13:06:18.828Z,101995.69
2023-05-24T13:08:45.367Z,101997.38
2023-05-24T13:11:12.570Z,102006.28
2023-05-24T13:13:39.102Z,102010.16
2023-05-24T13:16:07.462Z,102001.28
2023-05-24T13:18:34.056Z,101950.28
2023-05-24T13:21:00.755Z,101982.75
2023-05-24T13:23:27.882Z,101988.16
2023-05-24T13:25:54.559Z,101982.91
2023-05-24T13:28:22.172Z,101988.28
2023-05-24T13:30:48.790Z,101991.13
2023-05-24T13:33:15.807Z,101988.09
2023-05-24T13:35:42.633Z,101988.28
2023-05-24T13:38:09.657Z,101963.56
2023-05-24T13:40:37.411Z,101998.59
2023-05-24T13:43:04.805Z,101971.53
2023-05-24T13:45:33.209Z,101995.78
2023-05-24T13:48:04.076Z,101988.66
2023-05-24T13:50:34.920Z,102003.06
2023-05-24T13:53:04.769Z,101982.72
2023-05-24T13:55:34.145Z,101989.31
2023-05-24T13:58:05.100Z,101990.16
2023-05-24T14:00:33.402Z,101992.03
2023-05-24T14:02:59.965Z,101977.56
2023-05-24T14:05:27.828Z,101989.56
2023-05-24T14:07:56.663Z,101992.59
2023-05-24T14:10:23.651Z,101998.84
2023-05-24T14:12:59.993Z,101990.06
2023-05-24T14:15:37.178Z,101985.72
2023-05-24T14:18:08.085Z,101981.34
2023-05-24T14:20:37.819Z,101997.84
2023-05-24T14:23:04.928Z,101992.97
2023-05-24T14:25:32.064Z,101971.69
2023-05-24T14:27:59.729Z,101993.31
2023-05-24T14:30:26.667Z,101986.28
2023-05-24T14:32:53.212Z,101988.06
2023-05-24T14:35:20.147Z,101980.25
2023-05-24T14:37:46.770Z,101967.28
2023-05-24T14:40:13.908Z,102000.66
2023-05-24T14:42:41.303Z,101975.59
2023-05-24T14:45:08.700Z,102005.13
2023-05-24T14:47:35.645Z,102003.84
2023-05-24T14:50:02.462Z,101997.59
2023-05-24T14:52:29.000Z,101998.31
2023-05-24T14:54:55.532Z,102010.91
2023-05-24T14:57:22.485Z,101989.06
2023-05-24T14:59:49.009Z,102012.44
2023-05-24T15:02:15.658Z,102004.53
2023-05-24T15:04:45.061Z,101987.22
2023-05-24T15:07:11.569Z,102021.38
2023-05-24T15:09:38.232Z,102011.53
2023-05-24T15:12:05.929Z,102014.06
2023-05-24T15:14:32.433Z,101995.25
2023-05-24T15:16:59.014Z,102018.06
2023-05-24T15:19:25.944Z,102007.38
2023-05-24T15:21:52.394Z,102018.91
2023-05-24T15:24:19.001Z,102014.50
2023-05-24T15:26:45.518Z,102006.66
2023-05-24T15:29:12.008Z,102019.28
2023-05-24T15:31:38.567Z,102010.88
2023-05-24T15:34:05.834Z,102016.16
2023-05-24T15:36:32.574Z,102006.50
2023-05-24T15:39:01.598Z,101982.25
2023-05-24T15:41:28.333Z,102017.66
2023-05-24T15:43:54.930Z,102015.56
2023-05-24T15:46:22.016Z,102020.75
2023-05-24T15:48:48.819Z,102004.75
2023-05-24T15:53:44.843Z,102020.41
2023-05-24T15:56:11.823Z,102014.16
2023-05-24T15:58:38.340Z,102017.44
2023-05-24T16:01:04.889Z,102011.72
2023-05-24T16:03:31.580Z,102011.34
2023-05-24T16:06:01.682Z,102014.72
2023-05-24T16:08:28.475Z,102021.94
2023-05-24T16:10:55.594Z,102020.69
2023-05-24T16:13:22.146Z,101979.16
2023-05-24T16:15:51.602Z,101982.34
2023-05-24T16:18:22.305Z,102022.25
2023-05-24T16:20:50.070Z,102029.31
2023-05-24T16:23:17.316Z,102016.19
2023-05-24T16:25:46.090Z,102015.16
2023-05-24T16:28:12.724Z,101980.63
2023-05-24T16:30:39.698Z,102025.28
2023-05-24T16:33:06.411Z,102014.25
2023-05-24T16:35:33.742Z,102006.50
2023-05-24T16:38:00.299Z,102007.00
2023-05-24T16:40:28.379Z,102017.31
2023-05-24T16:42:55.225Z,102008.31
2023-05-24T16:45:21.750Z,102012.06
2023-05-24T16:47:48.277Z,102025.78
2023-05-24T16:50:15.182Z,101996.03
2023-05-24T16:52:42.933Z,102017.66
2023-05-24T16:55:10.721Z,102025.63
2023-05-24T16:57:37.403Z,102021.59
2023-05-24T17:00:04.976Z,102022.91
2023-05-24T17:02:31.525Z,102031.59
2023-05-24T17:04:58.046Z,102023.81
2023-05-24T17:07:24.674Z,102026.34
2023-05-24T17:09:51.767Z,102036.00
2023-05-24T17:12:18.574Z,102027.38
2023-05-24T17:14:45.120Z,101965.47
2023-05-24T17:17:12.060Z,102004.78
2023-05-24T17:19:38.605Z,102043.69
2023-05-24T17:22:06.516Z,102037.00
2023-05-24T17:24:32.983Z,102044.34
2023-05-24T17:26:59.503Z,102040.19
2023-05-24T17:29:26.722Z,102048.31
2023-05-24T17:31:53.249Z,102054.63
2023-05-24T17:34:19.745Z,102050.88
2023-05-24T17:36:46.198Z,102062.56
2023-05-24T17:39:12.798Z,102055.31
2023-05-24T17:41:39.308Z,102048.72
2023-05-24T17:44:06.098Z,102049.78
2023-05-24T17:46:35.748Z,102048.50
2023-05-24T17:49:02.900Z,102054.97
2023-05-24T17:51:29.326Z,102055.31
2023-05-24T17:53:56.106Z,102042.28
2023-05-24T17:56:23.216Z,102074.75
2023-05-24T17:58:50.547Z,102061.72
2023-05-24T18:01:17.440Z,102073.41
2023-05-24T18:03:44.027Z,102069.34
2023-05-24T18:06:11.003Z,102066.63
2023-05-24T18:08:43.022Z,102077.09
2023-05-24T18:11:11.592Z,102080.63
2023-05-24T18:13:45.073Z,102081.63
2023-05-24T18:16:12.336Z,102063.13
2023-05-24T18:18:39.139Z,102093.88
2023-05-24T18:21:06.423Z,102081.81
2023-05-24T18:23:37.188Z,102069.88
2023-05-24T18:26:06.842Z,102100.59
2023-05-24T18:28:34.529Z,102083.97
2023-05-24T18:31:00.955Z,102083.00
2023-05-24T18:33:27.460Z,102093.38
2023-05-24T18:35:54.025Z,102081.69
2023-05-24T18:38:20.569Z,102106.13
2023-05-24T18:40:47.018Z,102102.00
2023-05-24T18:43:13.726Z,102108.84
2023-05-24T18:45:40.416Z,102051.09
2023-05-24T18:48:07.938Z,102099.22
2023-05-24T18:50:34.823Z,102094.66
2023-05-24T18:53:01.376Z,102100.94
2023-05-24T18:55:28.300Z,102100.00
2023-05-24T18:57:54.913Z,102075.38
2023-05-24T19:00:24.527Z,102108.22
2023-05-24T19:02:51.522Z,102114.03
2023-05-24T19:05:19.565Z,102082.31
2023-05-24T19:07:46.050Z,102105.97
2023-05-24T19:10:13.791Z,102075.63
2023-05-24T19:12:40.347Z,102114.97
2023-05-24T19:15:07.479Z,102126.72
2023-05-24T19:17:33.955Z,102129.78
2023-05-24T19:20:01.974Z,102135.81
2023-05-24T19:22:31.080Z,102139.47
2023-05-24T19:24:57.860Z,102138.94
2023-05-24T19:27:24.613Z,102149.09
2023-05-24T19:29:51.203Z,102142.59
2023-05-24T19:32:18.368Z,102123.34
2023-05-24T19:34:45.106Z,102140.50
2023-05-24T19:37:11.679Z,102149.78
2023-05-24T19:39:38.164Z,102140.00
2023-05-24T19:42:04.921Z,102146.72
2023-05-24T19:44:31.480Z,102157.41
2023-05-24T19:46:58.123Z,102160.59
2023-05-24T19:49:24.662Z,102155.03
2023-05-24T19:51:51.625Z,102152.13
2023-05-24T19:54:18.333Z,102152.78
2023-05-24T19:56:46.144Z,102162.66
2023-05-24T19:59:12.616Z,102143.59
2023-05-24T20:01:39.116Z,102130.44
2023-05-24T20:04:05.762Z,102168.44
2023-05-24T20:06:33.085Z,102174.19
2023-05-24T20:09:00.294Z,102165.78
2023-05-24T20:11:28.108Z,102173.34
2023-05-24T20:13:55.835Z,102180.03
2023-05-24T20:16:23.123Z,102185.06
2023-05-24T20:18:49.828Z,102150.00
2023-05-24T20:21:18.289Z,102188.94
2023-05-24T20:23:44.925Z,102116.19
2023-05-24T20:26:11.529Z,102186.75
2023-05-24T20:28:38.016Z,102188.38
2023-05-24T20:31:04.559Z,102200.66
2023-05-24T20:33:31.026Z,102194.31
2023-05-24T20:35:58.259Z,102191.91
2023-05-24T20:38:24.894Z,102189.22
2023-05-24T20:40:51.458Z,102199.41
2023-05-24T20:43:17.998Z,102196.84
2023-05-24T20:45:44.787Z,102199.19
2023-05-24T20:48:11.648Z,102201.00
2023-05-24T20:50:38.159Z,102191.38
2023-05-24T20:53:04.708Z,102210.59
2023-05-24T20:55:31.607Z,102197.59
2023-05-24T20:57:58.181Z,102153.28
2023-05-24T21:00:24.687Z,102211.94
2023-05-24T21:02:51.382Z,102213.03
2023-05-24T21:05:18.006Z,102207.19
2023-05-24T21:07:44.489Z,102206.22
2023-05-24T21:10:21.445Z,102213.75
2023-05-24T21:12:48.362Z,102212.88
2023-05-24T21:15:15.006Z,102190.75
2023-05-24T21:17:41.596Z,102215.44
2023-05-24T21:20:08.487Z,102212.31
2023-05-24T21:22:34.962Z,102199.53
2023-05-24T21:25:01.450Z,102217.66
2023-05-24T21:27:28.125Z,102203.78
2023-05-24T21:29:54.611Z,102223.28
2023-05-24T21:32:21.149Z,102230.09
2023-05-24T21:34:47.662Z,102229.25
2023-05-24T21:37:14.206Z,102228.97
2023-05-24T21:39:43.586Z,102226.19
2023-05-24T21:42:10.056Z,102233.34
2023-05-24T21:44:36.816Z,102235.19
2023-05-24T21:47:03.411Z,102231.66
2023-05-24T21:49:29.869Z,102219.13
2023-05-24T21:51:56.384Z,102239.56
2023-05-24T21:54:22.848Z,102238.88
2023-05-24T21:56:49.427Z,102237.75
2023-05-24T21:59:15.919Z,102242.25
2023-05-24T22:01:42.553Z,102245.78
2023-05-24T22:04:09.606Z,102227.41
2023-05-24T22:06:36.432Z,102253.59
2023-05-24T22:09:03.119Z,102236.91
2023-05-24T22:11:29.610Z,102252.72
2023-05-24T22:13:56.602Z,102252.72
2023-05-24T22:16:24.071Z,102265.03
2023-05-24T22:18:55.703Z,102261.25
2023-05-24T22:21:22.696Z,102256.88
2023-05-24T22:23:50.687Z,102250.69
2023-05-24T22:26:17.270Z,102228.16
2023-05-24T22:28:55.520Z,102263.47
2023-05-24T22:31:23.832Z,102263.56
2023-05-24T22:33:50.517Z,102263.47
2023-05-24T22:36:17.000Z,102258.47
2023-05-24T22:38:44.102Z,102260.03
2023-05-24T22:41:10.943Z,102276.88
2023-05-24T22:43:37.403Z,102269.78
2023-05-24T22:46:03.962Z,102257.03
2023-05-24T22:48:33.758Z,102267.34
2023-05-24T22:51:00.741Z,102270.31
2023-05-24T22:53:27.210Z,102264.59
2023-05-24T22:55:53.675Z,102260.91
2023-05-24T22:58:23.286Z,102262.38
2023-05-24T23:00:50.804Z,102260.09
2023-05-24T23:03:18.118Z,102257.25
2023-05-24T23:05:45.626Z,102258.00
2023-05-24T23:08:15.386Z,102256.91
2023-05-24T23:10:45.579Z,102258.47
2023-05-24T23:13:13.213Z,102261.66
2023-05-24T23:15:39.953Z,102257.13
2023-05-24T23:18:07.220Z,102229.19
2023-05-24T23:20:40.395Z,102225.75
2023-05-24T23:23:07.773Z,102257.03
2023-05-24T23:25:35.230Z,102259.56
2023-05-24T23:28:01.768Z,102201.03
2023-05-24T23:30:28.684Z,102253.78
2023-05-24T23:32:55.302Z,102250.31
2023-05-24T23:35:22.168Z,102255.13
2023-05-24T23:37:48.772Z,102248.03
2023-05-24T23:40:15.406Z,102222.66
2023-05-24T23:42:41.933Z,102206.03
2023-05-24T23:45:08.674Z,102256.97
2023-05-24T23:47:35.164Z,102213.25
2023-05-24T23:50:01.741Z,102256.16
2023-05-24T23:52:28.286Z,102244.50
2023-05-24T23:54:54.725Z,102257.00
2023-05-24T23:57:21.684Z,102255.56
2023-05-24T23:59:48.163Z,102254.91
